Airfield :
LOGIN :

Register | Disclaimer

   EN    FR    IT 

 










Legend :    VFR   Marginal VFR   IFR   Intensive IFR   Very Intensive IFR
Visi :
Ceiling :
>= 8 km
>= 3000ft
5 to 8 km
1000 to 3000 ft
1500m to 5 km
500 to 1000 ft
800 to 1500m
200 to 500 ft
< 800m
< 200 ft
Symbols :   Thunderstorms  Fog  Heavy snow  Heavy precipitations  Wind > 20 kt
SIGMETs :     Misc.  Thunderstorms  Icing  Turbulence  Mountain Waves  Volcanic Ashes







- Airport Elevation : 97 ft
- IATA code : EBJ


EKEB - Esbjerg

CURRENT METAR :
  • 200150Z AUTO 29007KT 5000NDV RA BKN016/// 12/12 Q1013

EXPIRED METARs :
  • 200120Z AUTO 28005KT 8000NDV -RA FEW006/// BKN020/// BKN073/// 12/12 Q1013 RERA
  • 200050Z AUTO 28004KT 9999NDV -RA BKN005/// BKN072/// 12/12 Q1013 RERA
  • 200020Z AUTO 27003KT 6000NDV +DZ FEW008/// BKN011/// BKN100/// 12/12 Q1013
  • 192350Z AUTO 27005KT 9999NDV -SHRA FEW008/// BKN014/// BKN079/// 12/12 Q1013
  • 192320Z AUTO 27005KT 9999NDV -DZ FEW011/// BKN077/// 12/11 Q1013

TAF AMD TAF EKEB
Valid from the 20 at 01:00 until the 20 at 09:00 UTC


200102Z 2001/2009 27009KT 9999 BKN020
TEMPO 2001/2004 SHRA BKN005 SCT020TCU
TEMPO 2004/2009 SHRA BKN011 SCT020TCU
No reported NOTAMs for that airfield.



MET'MAP, your aeronautical weather chart ! - Copyright ORBIFLY December 2007 - Disclaimer

ORBIFLY MET'MAP TEAM :

Programming & Development : Alexandra Zaïnal
Concept & Development : Baudouin d'Aumeries
Co-Development & Prog : Marc-Olivier Méhu
Technical & hardware support : Manuel Goepfert

Contact : metmap@orbifly.com




SOURCES & CREDITS :

   NOAA